sensor_id;sensor_type;location;lat;lon;timestamp;P1;P4;P2;P0;N10;N4;N25;N1;N05;TS
78314;SPS30;68596;52.080;4.662;2023-09-19T00:00:48;2.28;2.14;1.88;1.48;11.84;11.83;11.76;11.40;9.40;0.63
78314;SPS30;68596;52.080;4.662;2023-09-19T00:03:33;2.31;2.19;1.99;1.63;13.08;13.06;13.01;12.71;10.62;0.60
78314;SPS30;68596;52.080;4.662;2023-09-19T00:06:17;2.53;2.42;2.20;1.82;14.59;14.57;14.51;14.20;11.89;0.61
78314;SPS30;68596;52.080;4.662;2023-09-19T00:09:01;2.29;2.18;1.98;1.64;13.12;13.11;13.06;12.77;10.68;0.59
78314;SPS30;68596;52.080;4.662;2023-09-19T00:11:46;2.73;2.58;2.29;1.82;14.61;14.59;14.52;14.11;11.68;0.63
78314;SPS30;68596;52.080;4.662;2023-09-19T00:14:32;2.77;2.58;2.24;1.71;13.69;13.66;13.58;13.10;10.70;0.66
78314;SPS30;68596;52.080;4.662;2023-09-19T00:17:20;3.27;3.04;2.62;1.98;15.92;15.89;15.79;15.21;12.38;0.66
78314;SPS30;68596;52.080;4.662;2023-09-19T00:20:04;3.16;2.93;2.52;1.89;15.15;15.12;15.01;14.44;11.73;0.67
78314;SPS30;68596;52.080;4.662;2023-09-19T00:22:51;3.07;2.83;2.40;1.77;14.18;14.16;14.05;13.46;10.85;0.68
78314;SPS30;68596;52.080;4.662;2023-09-19T00:25:38;2.91;2.69;2.29;1.68;13.51;13.49;13.39;12.83;10.35;0.66
78314;SPS30;68596;52.080;4.662;2023-09-19T00:28:22;2.61;2.42;2.08;1.56;12.50;12.48;12.40;11.92;9.68;0.65
78314;SPS30;68596;52.080;4.662;2023-09-19T00:31:08;2.80;2.60;2.22;1.66;13.28;13.26;13.16;12.64;10.24;0.66
78314;SPS30;68596;52.080;4.662;2023-09-19T00:33:52;3.09;2.86;2.44;1.81;14.56;14.53;14.43;13.85;11.21;0.66
78314;SPS30;68596;52.080;4.662;2023-09-19T00:36:37;3.04;2.81;2.40;1.78;14.32;14.29;14.19;13.62;11.03;0.66
78314;SPS30;68596;52.080;4.662;2023-09-19T00:39:27;2.99;2.78;2.39;1.80;14.42;14.39;14.29;13.76;11.18;0.65
78314;SPS30;68596;52.080;4.662;2023-09-19T00:42:20;2.96;2.77;2.42;1.88;15.07;15.05;14.96;14.48;11.89;0.64
78314;SPS30;68596;52.080;4.662;2023-09-19T00:45:05;2.86;2.68;2.33;1.80;14.43;14.41;14.33;13.85;11.35;0.64
78314;SPS30;68596;52.080;4.662;2023-09-19T00:47:52;2.93;2.74;2.38;1.82;14.61;14.59;14.50;14.00;11.45;0.65
78314;SPS30;68596;52.080;4.662;2023-09-19T00:50:37;2.79;2.59;2.24;1.70;13.64;13.61;13.53;13.04;10.63;0.66
78314;SPS30;68596;52.080;4.662;2023-09-19T00:53:26;3.07;2.85;2.44;1.82;14.62;14.60;14.49;13.93;11.29;0.67
78314;SPS30;68596;52.080;4.662;2023-09-19T00:56:11;2.75;2.55;2.18;1.63;13.04;13.02;12.92;12.42;10.06;0.67
78314;SPS30;68596;52.080;4.662;2023-09-19T00:58:55;2.79;2.58;2.19;1.62;12.98;12.96;12.86;12.33;9.96;0.67
78314;SPS30;68596;52.080;4.662;2023-09-19T01:01:39;3.02;2.79;2.38;1.76;14.13;14.10;14.00;13.43;10.85;0.68
78314;SPS30;68596;52.080;4.662;2023-09-19T01:04:23;2.99;2.75;2.31;1.67;13.42;13.39;13.29;12.69;10.17;0.69
78314;SPS30;68596;52.080;4.662;2023-09-19T01:07:08;3.23;2.97;2.50;1.80;14.42;14.39;14.27;13.62;10.89;0.68
78314;SPS30;68596;52.080;4.662;2023-09-19T01:09:53;3.49;3.20;2.68;1.92;15.45;15.41;15.28;14.57;11.64;0.69
78314;SPS30;68596;52.080;4.662;2023-09-19T01:18:40;3.17;2.90;2.40;1.67;13.43;13.40;13.27;12.59;9.96;0.69
78314;SPS30;68596;52.080;4.662;2023-09-19T01:27:53;3.25;2.96;2.43;1.67;13.46;13.43;13.30;12.58;9.90;0.70
78314;SPS30;68596;52.080;4.662;2023-09-19T01:30:56;3.62;3.31;2.74;1.92;15.43;15.40;15.26;14.48;11.47;0.70
78314;SPS30;68596;52.080;4.662;2023-09-19T01:33:53;3.45;3.17;2.66;1.92;15.40;15.37;15.24;14.55;11.64;0.68
78314;SPS30;68596;52.080;4.662;2023-09-19T01:36:44;3.82;3.50;2.93;2.09;16.75;16.71;16.57;15.79;12.59;0.68
78314;SPS30;68596;52.080;4.662;2023-09-19T01:39:29;3.47;3.18;2.66;1.90;15.25;15.21;15.08;14.37;11.46;0.70
78314;SPS30;68596;52.080;4.662;2023-09-19T01:48:43;3.72;3.42;2.87;2.06;16.51;16.47;16.33;15.58;12.45;0.67
78314;SPS30;68596;52.080;4.662;2023-09-19T01:55:01;3.78;3.46;2.87;2.03;16.29;16.25;16.11;15.32;12.17;0.68
78314;SPS30;68596;52.080;4.662;2023-09-19T02:01:01;4.45;4.01;3.20;2.07;16.64;16.59;16.39;15.30;11.72;0.74
78314;SPS30;68596;52.080;4.662;2023-09-19T02:03:49;4.73;4.24;3.34;2.10;16.93;16.88;16.66;15.46;11.70;0.75
78314;SPS30;68596;52.080;4.662;2023-09-19T02:06:34;4.91;4.41;3.49;2.21;17.82;17.77;17.54;16.31;12.39;0.76
78314;SPS30;68596;52.080;4.662;2023-09-19T02:09:18;4.57;4.10;3.23;2.02;16.28;16.23;16.02;14.85;11.22;0.77
78314;SPS30;68596;52.080;4.662;2023-09-19T02:12:03;4.56;4.06;3.16;1.91;15.44;15.38;15.16;13.95;10.38;0.78
78314;SPS30;68596;52.080;4.662;2023-09-19T02:14:47;5.16;4.59;3.55;2.13;17.16;17.10;16.84;15.46;11.43;0.79
78314;SPS30;68596;52.080;4.662;2023-09-19T02:17:31;4.90;4.37;3.40;2.06;16.60;16.55;16.31;15.01;11.16;0.78
78314;SPS30;68596;52.080;4.662;2023-09-19T02:20:15;4.85;4.31;3.32;1.96;15.84;15.78;15.54;14.22;10.44;0.79
78314;SPS30;68596;52.080;4.662;2023-09-19T02:23:00;5.25;4.66;3.58;2.11;17.04;16.98;16.71;15.28;11.20;0.80
78314;SPS30;68596;52.080;4.662;2023-09-19T02:25:56;5.00;4.43;3.40;1.99;16.03;15.97;15.71;14.34;10.46;0.80
78314;SPS30;68596;52.080;4.662;2023-09-19T02:28:47;4.40;3.95;3.12;1.96;15.81;15.76;15.56;14.44;10.94;0.75
78314;SPS30;68596;52.080;4.662;2023-09-19T02:31:37;4.14;3.73;2.98;1.94;15.62;15.57;15.39;14.39;11.06;0.74
78314;SPS30;68596;52.080;4.662;2023-09-19T02:34:21;4.07;3.66;2.91;1.86;15.01;14.96;14.78;13.77;10.51;0.75
78314;SPS30;68596;52.080;4.662;2023-09-19T02:37:06;4.57;4.11;3.26;2.09;16.80;16.75;16.54;15.41;11.75;0.75
78314;SPS30;68596;52.080;4.662;2023-09-19T02:39:52;4.43;3.98;3.15;1.99;16.06;16.01;15.80;14.69;11.16;0.75
78314;SPS30;68596;52.080;4.662;2023-09-19T02:42:36;4.12;3.68;2.87;1.76;14.16;14.12;13.92;12.84;9.59;0.77
78314;SPS30;68596;52.080;4.662;2023-09-19T02:45:20;4.34;3.87;3.00;1.82;14.67;14.62;14.41;13.26;9.85;0.77
78314;SPS30;68596;52.080;4.662;2023-09-19T02:48:04;4.68;4.16;3.23;1.95;15.70;15.65;15.42;14.17;10.51;0.77
78314;SPS30;68596;52.080;4.662;2023-09-19T02:50:49;4.02;3.60;2.83;1.77;14.26;14.21;14.03;13.00;9.81;0.75
78314;SPS30;68596;52.080;4.662;2023-09-19T02:53:34;4.21;3.78;3.00;1.92;15.44;15.40;15.20;14.16;10.79;0.74
78314;SPS30;68596;52.080;4.662;2023-09-19T02:56:18;3.89;3.49;2.75;1.73;13.98;13.93;13.75;12.77;9.68;0.75
78314;SPS30;68596;52.080;4.662;2023-09-19T02:59:02;4.09;3.65;2.83;1.71;13.83;13.78;13.58;12.49;9.28;0.77
78314;SPS30;68596;52.080;4.662;2023-09-19T03:01:47;4.71;4.20;3.26;1.98;15.93;15.88;15.65;14.40;10.70;0.77
78314;SPS30;68596;52.080;4.662;2023-09-19T03:04:32;4.59;4.09;3.18;1.94;15.61;15.56;15.34;14.13;10.53;0.78
78314;SPS30;68596;52.080;4.662;2023-09-19T03:07:16;3.68;3.31;2.64;1.71;13.73;13.69;13.53;12.63;9.67;0.74
78314;SPS30;68596;52.080;4.662;2023-09-19T03:10:01;4.22;3.79;3.01;1.93;15.53;15.48;15.29;14.24;10.87;0.75
78314;SPS30;68596;52.080;4.662;2023-09-19T03:12:47;3.83;3.45;2.76;1.78;14.35;14.30;14.13;13.20;10.11;0.76
78314;SPS30;68596;52.080;4.662;2023-09-19T03:15:31;3.66;3.31;2.67;1.76;14.16;14.12;13.97;13.10;10.13;0.75
78314;SPS30;68596;52.080;4.662;2023-09-19T03:18:15;3.95;3.56;2.83;1.82;14.64;14.59;14.41;13.44;10.27;0.76
78314;SPS30;68596;52.080;4.662;2023-09-19T03:20:59;3.64;3.29;2.65;1.76;14.13;14.10;13.94;13.08;10.13;0.75
78314;SPS30;68596;52.080;4.662;2023-09-19T03:23:43;3.66;3.31;2.68;1.79;14.40;14.37;14.21;13.36;10.38;0.75
78314;SPS30;68596;52.080;4.662;2023-09-19T03:26:31;3.41;3.07;2.47;1.62;13.04;13.00;12.85;12.04;9.29;0.76
78314;SPS30;68596;52.080;4.662;2023-09-19T03:29:14;3.49;3.15;2.52;1.64;13.22;13.18;13.03;12.18;9.37;0.76
78314;SPS30;68596;52.080;4.662;2023-09-19T03:32:01;3.89;3.51;2.82;1.86;14.96;14.92;14.75;13.83;10.68;0.75
78314;SPS30;68596;52.080;4.662;2023-09-19T03:34:45;4.08;3.67;2.93;1.88;15.17;15.13;14.95;13.95;10.67;0.75
78314;SPS30;68596;52.080;4.662;2023-09-19T03:37:32;3.81;3.45;2.80;1.88;15.09;15.05;14.89;14.01;10.91;0.72
78314;SPS30;68596;52.080;4.662;2023-09-19T03:40:17;3.77;3.42;2.80;1.91;15.36;15.32;15.17;14.32;11.23;0.71
78314;SPS30;68596;52.080;4.662;2023-09-19T03:43:03;3.46;3.15;2.60;1.80;14.44;14.41;14.27;13.52;10.66;0.71
78314;SPS30;68596;52.080;4.662;2023-09-19T03:45:47;4.17;3.78;3.06;2.05;16.52;16.48;16.30;15.34;11.94;0.73
78314;SPS30;68596;52.080;4.662;2023-09-19T03:48:32;4.09;3.68;2.92;1.87;15.08;15.04;14.85;13.84;10.57;0.76
78314;SPS30;68596;52.080;4.662;2023-09-19T03:51:17;4.01;3.61;2.88;1.85;14.88;14.83;14.65;13.67;10.45;0.76
78314;SPS30;68596;52.080;4.662;2023-09-19T03:54:01;4.47;4.00;3.15;1.97;15.87;15.82;15.61;14.47;10.92;0.77
78314;SPS30;68596;52.080;4.662;2023-09-19T03:56:47;4.77;4.27;3.37;2.11;16.97;16.92;16.69;15.48;11.69;0.77
78314;SPS30;68596;52.080;4.662;2023-09-19T03:59:31;4.00;3.58;2.81;1.74;14.06;14.02;13.83;12.80;9.63;0.78
78314;SPS30;68596;52.080;4.662;2023-09-19T04:02:15;4.53;4.05;3.19;2.00;16.08;16.03;15.82;14.66;11.07;0.76
78314;SPS30;68596;52.080;4.662;2023-09-19T04:05:06;4.39;3.95;3.15;2.02;16.28;16.23;16.03;14.95;11.43;0.74
78314;SPS30;68596;52.080;4.662;2023-09-19T04:07:50;4.62;4.14;3.27;2.06;16.62;16.57;16.35;15.19;11.51;0.75
78314;SPS30;68596;52.080;4.662;2023-09-19T04:10:34;4.40;3.94;3.12;1.97;15.90;15.85;15.65;14.54;11.04;0.75
78314;SPS30;68596;52.080;4.662;2023-09-19T04:13:19;4.82;4.34;3.46;2.22;17.88;17.83;17.61;16.42;12.55;0.74
78314;SPS30;68596;52.080;4.662;2023-09-19T04:16:03;4.42;3.98;3.18;2.06;16.60;16.55;16.36;15.28;11.72;0.73
78314;SPS30;68596;52.080;4.662;2023-09-19T04:18:48;4.82;4.34;3.45;2.20;17.76;17.70;17.48;16.29;12.43;0.73
78314;SPS30;68596;52.080;4.662;2023-09-19T04:21:32;4.15;3.75;3.02;1.99;16.00;15.96;15.78;14.79;11.43;0.71
78314;SPS30;68596;52.080;4.662;2023-09-19T04:24:16;4.52;4.07;3.25;2.10;16.92;16.87;16.67;15.56;11.93;0.73
78314;SPS30;68596;52.080;4.662;2023-09-19T04:27:03;4.69;4.19;3.29;2.04;16.42;16.37;16.15;14.94;11.23;0.76
78314;SPS30;68596;52.080;4.662;2023-09-19T04:29:48;6.33;5.78;4.79;3.35;26.90;26.84;26.59;25.24;19.98;0.70
78314;SPS30;68596;52.080;4.662;2023-09-19T04:32:33;4.09;3.78;3.21;2.37;19.01;18.97;18.83;18.05;14.56;0.66
78314;SPS30;68596;52.080;4.662;2023-09-19T04:35:18;4.11;3.79;3.20;2.34;18.76;18.73;18.58;17.78;14.30;0.69
78314;SPS30;68596;52.080;4.662;2023-09-19T04:38:02;4.31;3.95;3.28;2.32;18.65;18.61;18.44;17.54;13.94;0.70
78314;SPS30;68596;52.080;4.662;2023-09-19T04:40:47;4.34;3.96;3.27;2.28;18.34;18.30;18.13;17.19;13.60;0.71
78314;SPS30;68596;52.080;4.662;2023-09-19T04:43:31;4.24;3.86;3.17;2.18;17.51;17.47;17.29;16.36;12.86;0.71
78314;SPS30;68596;52.080;4.662;2023-09-19T04:46:15;3.82;3.46;2.80;1.87;15.03;14.99;14.83;13.94;10.83;0.73
78314;SPS30;68596;52.080;4.662;2023-09-19T04:49:01;4.72;4.26;3.43;2.26;18.21;18.16;17.96;16.84;13.02;0.74
78314;SPS30;68596;52.080;4.662;2023-09-19T04:51:46;4.39;3.96;3.17;2.07;16.68;16.63;16.44;15.39;11.85;0.74
78314;SPS30;68596;52.080;4.662;2023-09-19T04:54:31;5.01;4.47;3.50;2.16;17.41;17.35;17.11;15.81;11.86;0.77
78314;SPS30;68596;52.080;4.662;2023-09-19T04:57:15;4.52;4.04;3.15;1.94;15.61;15.56;15.34;14.16;10.60;0.77
78314;SPS30;68596;52.080;4.662;2023-09-19T04:59:59;4.70;4.19;3.27;2.01;16.18;16.13;15.90;14.68;10.97;0.77
78314;SPS30;68596;52.080;4.662;2023-09-19T05:02:43;4.76;4.25;3.33;2.06;16.62;16.57;16.34;15.11;11.35;0.77
78314;SPS30;68596;52.080;4.662;2023-09-19T05:05:27;3.97;3.55;2.79;1.72;13.90;13.86;13.67;12.64;9.50;0.78
78314;SPS30;68596;52.080;4.662;2023-09-19T05:08:12;4.81;4.28;3.32;2.00;16.11;16.06;15.82;14.54;10.77;0.80
78314;SPS30;68596;52.080;4.662;2023-09-19T05:11:01;5.11;4.56;3.57;2.20;17.74;17.68;17.43;16.10;12.07;0.79
78314;SPS30;68596;52.080;4.662;2023-09-19T05:13:46;5.05;4.51;3.54;2.20;17.74;17.68;17.44;16.14;12.14;0.77
78314;SPS30;68596;52.080;4.662;2023-09-19T05:16:30;4.29;3.86;3.08;1.99;16.01;15.97;15.77;14.73;11.28;0.76
78314;SPS30;68596;52.080;4.662;2023-09-19T05:19:18;4.35;3.94;3.19;2.13;17.17;17.12;16.94;15.93;12.39;0.74
78314;SPS30;68596;52.080;4.662;2023-09-19T05:22:02;4.69;4.26;3.46;2.33;18.77;18.72;18.52;17.45;13.61;0.74
78314;SPS30;68596;52.080;4.662;2023-09-19T05:24:48;4.83;4.35;3.47;2.24;18.00;17.95;17.73;16.55;12.67;0.76
78314;SPS30;68596;52.080;4.662;2023-09-19T05:27:32;5.03;4.50;3.52;2.17;17.53;17.47;17.23;15.93;11.95;0.77
78314;SPS30;68596;52.080;4.662;2023-09-19T05:30:17;4.70;4.23;3.36;2.14;17.26;17.21;17.00;15.83;12.07;0.75
78314;SPS30;68596;52.080;4.662;2023-09-19T05:33:02;4.66;4.20;3.36;2.19;17.60;17.54;17.34;16.21;12.45;0.74
78314;SPS30;68596;52.080;4.662;2023-09-19T05:35:48;5.05;4.51;3.53;2.17;17.53;17.47;17.23;15.92;11.93;0.77
78314;SPS30;68596;52.080;4.662;2023-09-19T05:38:33;5.20;4.65;3.66;2.29;18.47;18.41;18.16;16.84;12.71;0.78
78314;SPS30;68596;52.080;4.662;2023-09-19T05:41:17;4.96;4.46;3.55;2.28;18.36;18.30;18.08;16.86;12.88;0.75
78314;SPS30;68596;52.080;4.662;2023-09-19T05:44:01;4.49;4.04;3.24;2.10;16.91;16.86;16.66;15.57;11.96;0.75
78314;SPS30;68596;52.080;4.662;2023-09-19T05:46:50;4.37;3.96;3.21;2.15;17.26;17.22;17.03;16.02;12.46;0.72
78314;SPS30;68596;52.080;4.662;2023-09-19T05:49:35;4.08;3.73;3.10;2.18;17.53;17.49;17.33;16.47;13.07;0.69
78314;SPS30;68596;52.080;4.662;2023-09-19T05:52:23;4.06;3.74;3.17;2.31;18.55;18.51;18.36;17.57;14.13;0.66
78314;SPS30;68596;52.080;4.662;2023-09-19T05:55:08;3.98;3.66;3.08;2.22;17.85;17.81;17.67;16.87;13.51;0.67
78314;SPS30;68596;52.080;4.662;2023-09-19T05:57:52;5.04;4.61;3.82;2.68;21.54;21.49;21.29;20.22;16.03;0.69
78314;SPS30;68596;52.080;4.662;2023-09-19T06:00:37;4.76;4.33;3.56;2.45;19.69;19.64;19.45;18.40;14.47;0.71
78314;SPS30;68596;52.080;4.662;2023-09-19T06:03:22;4.74;4.30;3.49;2.33;18.77;18.72;18.52;17.43;13.56;0.72
78314;SPS30;68596;52.080;4.662;2023-09-19T06:06:07;4.96;4.48;3.61;2.38;19.16;19.11;18.89;17.72;13.70;0.75
78314;SPS30;68596;52.080;4.662;2023-09-19T06:08:51;5.75;5.16;4.10;2.63;21.16;21.09;20.83;19.41;14.81;0.76
78314;SPS30;68596;52.080;4.662;2023-09-19T06:11:36;5.48;4.96;4.01;2.66;21.41;21.35;21.11;19.83;15.37;0.71
78314;SPS30;68596;52.080;4.662;2023-09-19T06:14:21;4.94;4.49;3.66;2.49;20.02;19.97;19.77;18.66;14.60;0.71
78314;SPS30;68596;52.080;4.662;2023-09-19T06:17:07;4.98;4.50;3.63;2.40;19.30;19.25;19.03;17.86;13.82;0.73
78314;SPS30;68596;52.080;4.662;2023-09-19T06:19:51;5.54;4.99;4.00;2.61;20.98;20.92;20.67;19.34;14.87;0.74
78314;SPS30;68596;52.080;4.662;2023-09-19T06:22:35;6.01;5.39;4.28;2.73;22.02;21.95;21.68;20.19;15.38;0.74
78314;SPS30;68596;52.080;4.662;2023-09-19T06:25:20;5.08;4.55;3.57;2.22;17.93;17.87;17.63;16.33;12.30;0.75
78314;SPS30;68596;52.080;4.662;2023-09-19T06:28:05;5.44;4.86;3.81;2.37;19.08;19.02;18.76;17.36;13.06;0.75
78314;SPS30;68596;52.080;4.662;2023-09-19T06:30:51;6.03;5.39;4.24;2.63;21.21;21.14;20.86;19.31;14.53;0.74
78314;SPS30;68596;52.080;4.662;2023-09-19T06:33:36;5.96;5.31;4.15;2.54;20.47;20.40;20.11;18.55;13.86;0.75
78314;SPS30;68596;52.080;4.662;2023-09-19T06:36:24;5.41;4.83;3.78;2.33;18.76;18.70;18.44;17.03;12.77;0.75
78314;SPS30;68596;52.080;4.662;2023-09-19T06:39:08;5.60;5.01;3.95;2.48;20.00;19.94;19.68;18.26;13.81;0.76
78314;SPS30;68596;52.080;4.662;2023-09-19T06:41:54;5.69;5.10;4.03;2.55;20.53;20.47;20.20;18.77;14.24;0.75
78314;SPS30;68596;52.080;4.662;2023-09-19T06:44:38;5.69;5.11;4.07;2.62;21.07;21.00;20.75;19.35;14.79;0.74
78314;SPS30;68596;52.080;4.662;2023-09-19T06:47:23;5.73;5.16;4.11;2.64;21.29;21.23;20.97;19.56;14.96;0.75
78314;SPS30;68596;52.080;4.662;2023-09-19T06:50:09;5.76;5.18;4.13;2.67;21.48;21.42;21.16;19.75;15.13;0.75
78314;SPS30;68596;52.080;4.662;2023-09-19T06:52:57;6.14;5.51;4.37;2.79;22.44;22.37;22.09;20.56;15.65;0.76
78314;SPS30;68596;52.080;4.662;2023-09-19T06:55:43;6.26;5.63;4.48;2.88;23.21;23.14;22.85;21.32;16.30;0.76
78314;SPS30;68596;52.080;4.662;2023-09-19T06:58:29;5.53;4.99;4.02;2.65;21.33;21.27;21.03;19.72;15.24;0.74
78314;SPS30;68596;52.080;4.662;2023-09-19T07:01:13;5.02;4.57;3.75;2.57;20.63;20.58;20.38;19.26;15.12;0.72
78314;SPS30;68596;52.080;4.662;2023-09-19T07:03:57;5.36;4.82;3.84;2.47;19.89;19.83;19.59;18.27;13.98;0.76
78314;SPS30;68596;52.080;4.662;2023-09-19T07:06:41;6.06;5.41;4.23;2.60;20.95;20.87;20.58;19.00;14.22;0.77
78314;SPS30;68596;52.080;4.662;2023-09-19T07:09:26;6.11;5.44;4.22;2.55;20.57;20.50;20.20;18.57;13.79;0.78
78314;SPS30;68596;52.080;4.662;2023-09-19T07:12:11;5.98;5.32;4.12;2.47;19.90;19.83;19.53;17.93;13.25;0.79
78314;SPS30;68596;52.080;4.662;2023-09-19T07:14:55;5.69;5.10;4.04;2.57;20.68;20.62;20.36;18.94;14.40;0.76
78314;SPS30;68596;52.080;4.662;2023-09-19T07:17:39;5.60;5.06;4.07;2.68;21.54;21.48;21.24;19.90;15.37;0.73
78314;SPS30;68596;52.080;4.662;2023-09-19T07:20:24;5.09;4.63;3.79;2.60;20.90;20.85;20.64;19.51;15.33;0.72
78314;SPS30;68596;52.080;4.662;2023-09-19T07:23:16;5.17;4.64;3.68;2.34;18.88;18.83;18.59;17.30;13.17;0.77
78314;SPS30;68596;52.080;4.662;2023-09-19T07:26:06;6.23;5.56;4.34;2.66;21.48;21.41;21.11;19.49;14.58;0.78
78314;SPS30;68596;52.080;4.662;2023-09-19T07:28:50;6.50;5.78;4.47;2.67;21.54;21.46;21.14;19.39;14.31;0.79
78314;SPS30;68596;52.080;4.662;2023-09-19T07:31:34;6.56;5.82;4.47;2.63;21.22;21.14;20.81;19.01;13.92;0.81
78314;SPS30;68596;52.080;4.662;2023-09-19T07:34:18;6.04;5.37;4.16;2.49;20.10;20.02;19.73;18.11;13.39;0.78
78314;SPS30;68596;52.080;4.662;2023-09-19T07:37:03;6.49;5.79;4.51;2.75;22.17;22.09;21.78;20.07;14.97;0.77
78314;SPS30;68596;52.080;4.662;2023-09-19T07:39:47;5.87;5.24;4.10;2.53;20.40;20.33;20.05;18.53;13.89;0.75
78314;SPS30;68596;52.080;4.662;2023-09-19T07:42:31;6.64;5.96;4.73;3.01;24.21;24.14;23.83;22.18;16.87;0.74
78314;SPS30;68596;52.080;4.662;2023-09-19T07:45:15;5.66;5.11;4.13;2.73;21.98;21.92;21.67;20.34;15.75;0.73
78314;SPS30;68596;52.080;4.662;2023-09-19T07:48:01;6.03;5.40;4.26;2.67;21.51;21.44;21.15;19.62;14.83;0.77
78314;SPS30;68596;52.080;4.662;2023-09-19T07:50:49;6.87;6.10;4.72;2.82;22.74;22.65;22.31;20.46;15.10;0.78
78314;SPS30;68596;52.080;4.662;2023-09-19T07:53:34;6.89;6.13;4.74;2.83;22.83;22.75;22.40;20.55;15.17;0.79
78314;SPS30;68596;52.080;4.662;2023-09-19T07:56:19;6.07;5.44;4.30;2.71;21.86;21.79;21.51;19.98;15.15;0.75
78314;SPS30;68596;52.080;4.662;2023-09-19T07:59:04;6.31;5.66;4.48;2.84;22.88;22.81;22.52;20.94;15.91;0.75
78314;SPS30;68596;52.080;4.662;2023-09-19T08:01:48;5.70;5.15;4.14;2.72;21.90;21.84;21.59;20.23;15.62;0.73
78314;SPS30;68596;52.080;4.662;2023-09-19T08:04:32;6.64;5.97;4.75;3.04;24.50;24.43;24.13;22.49;17.18;0.74
78314;SPS30;68596;52.080;4.662;2023-09-19T08:07:17;5.89;5.31;4.26;2.78;22.37;22.31;22.05;20.63;15.88;0.73
78314;SPS30;68596;52.080;4.662;2023-09-19T08:10:05;5.29;4.82;3.97;2.75;22.13;22.08;21.87;20.72;16.34;0.70
78314;SPS30;68596;52.080;4.662;2023-09-19T08:12:57;5.68;5.12;4.11;2.68;21.60;21.54;21.29;19.93;15.34;0.73
78314;SPS30;68596;52.080;4.662;2023-09-19T08:15:43;6.82;6.10;4.80;2.99;24.07;23.99;23.67;21.92;16.52;0.76
78314;SPS30;68596;52.080;4.662;2023-09-19T08:18:28;6.85;6.11;4.77;2.92;23.55;23.47;23.14;21.35;15.95;0.75
78314;SPS30;68596;52.080;4.662;2023-09-19T08:21:14;6.96;6.19;4.79;2.87;23.19;23.10;22.76;20.89;15.45;0.77
78314;SPS30;68596;52.080;4.662;2023-09-19T08:23:59;7.10;6.33;4.93;3.01;24.28;24.20;23.85;21.99;16.41;0.76
78314;SPS30;68596;52.080;4.662;2023-09-19T08:26:45;7.51;6.68;5.17;3.10;25.01;24.92;24.54;22.53;16.66;0.78
78314;SPS30;68596;52.080;4.662;2023-09-19T08:29:30;7.01;6.27;4.93;3.07;24.71;24.63;24.30;22.50;16.95;0.76
78314;SPS30;68596;52.080;4.662;2023-09-19T08:32:15;5.99;5.37;4.25;2.69;21.71;21.64;21.37;19.87;15.09;0.74
78314;SPS30;68596;52.080;4.662;2023-09-19T08:34:59;5.65;5.09;4.09;2.68;21.55;21.49;21.24;19.89;15.33;0.72
78314;SPS30;68596;52.080;4.662;2023-09-19T08:37:44;6.01;5.46;4.47;3.04;24.47;24.41;24.16;22.81;17.88;0.70
78314;SPS30;68596;52.080;4.662;2023-09-19T08:40:32;6.13;5.52;4.42;2.87;23.09;23.02;22.75;21.26;16.33;0.73
78314;SPS30;68596;52.080;4.662;2023-09-19T08:43:21;7.03;6.31;5.01;3.20;25.74;25.66;25.34;23.59;17.97;0.75
78314;SPS30;68596;52.080;4.662;2023-09-19T08:46:14;6.03;5.47;4.46;3.02;24.26;24.20;23.95;22.58;17.65;0.71
78314;SPS30;68596;52.080;4.662;2023-09-19T08:49:03;5.77;5.20;4.16;2.70;21.73;21.67;21.41;20.01;15.37;0.74
78314;SPS30;68596;52.080;4.662;2023-09-19T08:51:54;5.95;5.31;4.13;2.52;20.30;20.23;19.94;18.37;13.69;0.76
78314;SPS30;68596;52.080;4.662;2023-09-19T08:54:55;5.64;5.06;4.00;2.52;20.33;20.27;20.00;18.58;14.09;0.75
78314;SPS30;68596;52.080;4.662;2023-09-19T08:57:51;5.98;5.36;4.24;2.69;21.66;21.59;21.32;19.82;15.05;0.75
78314;SPS30;68596;52.080;4.662;2023-09-19T09:00:39;6.91;6.18;4.85;3.01;24.24;24.16;23.83;22.05;16.58;0.77
78314;SPS30;68596;52.080;4.662;2023-09-19T09:03:29;6.33;5.68;4.48;2.83;22.79;22.72;22.43;20.83;15.79;0.77
78314;SPS30;68596;52.080;4.662;2023-09-19T09:06:17;6.83;6.08;4.71;2.83;22.86;22.78;22.44;20.62;15.27;0.79
78314;SPS30;68596;52.080;4.662;2023-09-19T09:09:04;7.09;6.26;4.75;2.70;21.78;21.69;21.32;19.32;13.87;0.82
78314;SPS30;68596;52.080;4.662;2023-09-19T09:11:48;7.80;6.87;5.16;2.86;23.14;23.04;22.62;20.36;14.41;0.83
78314;SPS30;68596;52.080;4.662;2023-09-19T09:14:36;7.94;6.96;5.18;2.78;22.54;22.44;22.00;19.65;13.65;0.86
78314;SPS30;68596;52.080;4.662;2023-09-19T09:17:22;8.13;7.18;5.44;3.08;24.93;24.82;24.40;22.09;15.85;0.84
78314;SPS30;68596;52.080;4.662;2023-09-19T09:20:09;7.00;6.22;4.79;2.84;22.95;22.87;22.52;20.62;15.16;0.82
78314;SPS30;68596;52.080;4.662;2023-09-19T09:22:54;7.35;6.53;5.05;3.02;24.35;24.26;23.90;21.92;16.18;0.81
78314;SPS30;68596;52.080;4.662;2023-09-19T09:25:49;7.81;6.90;5.24;2.98;24.12;24.02;23.61;21.41;15.40;0.81
78314;SPS30;68596;52.080;4.662;2023-09-19T09:28:45;7.31;6.47;4.94;2.87;23.16;23.07;22.69;20.67;15.02;0.79
78314;SPS30;68596;52.080;4.662;2023-09-19T09:31:29;6.35;5.65;4.40;2.67;21.50;21.43;21.12;19.44;14.46;0.76
78314;SPS30;68596;52.080;4.662;2023-09-19T09:34:14;6.70;5.95;4.58;2.70;21.80;21.72;21.38;19.55;14.34;0.78
78314;SPS30;68596;52.080;4.662;2023-09-19T09:37:00;6.48;5.71;4.31;2.41;19.52;19.44;19.10;17.24;12.28;0.80
78314;SPS30;68596;52.080;4.662;2023-09-19T09:39:57;7.63;6.71;5.05;2.80;22.63;22.54;22.13;19.92;14.11;0.81
78314;SPS30;68596;52.080;4.662;2023-09-19T09:42:58;6.62;5.87;4.50;2.63;21.23;21.15;20.81;18.99;13.86;0.79
78314;SPS30;68596;52.080;4.662;2023-09-19T09:45:43;6.66;5.94;4.63;2.84;22.88;22.80;22.48;20.74;15.49;0.77
78314;SPS30;68596;52.080;4.662;2023-09-19T09:48:32;6.40;5.70;4.44;2.69;21.72;21.64;21.33;19.64;14.61;0.77
78314;SPS30;68596;52.080;4.662;2023-09-19T09:51:28;6.54;5.83;4.53;2.75;22.15;22.07;21.75;20.03;14.89;0.77
78314;SPS30;68596;52.080;4.662;2023-09-19T09:54:15;7.01;6.25;4.89;3.00;24.19;24.11;23.77;21.95;16.42;0.77
78314;SPS30;68596;52.080;4.662;2023-09-19T09:57:06;6.00;5.31;4.07;2.37;19.14;19.06;18.76;17.10;12.46;0.80
78314;SPS30;68596;52.080;4.662;2023-09-19T09:59:58;5.69;5.10;4.03;2.55;20.56;20.50;20.24;18.81;14.28;0.73
78314;SPS30;68596;52.080;4.662;2023-09-19T10:02:55;6.04;5.40;4.25;2.65;21.38;21.31;21.03;19.49;14.70;0.74
78314;SPS30;68596;52.080;4.662;2023-09-19T10:05:39;6.21;5.56;4.36;2.71;21.88;21.81;21.51;19.92;15.00;0.75
78314;SPS30;68596;52.080;4.662;2023-09-19T10:08:28;6.01;5.36;4.20;2.59;20.86;20.79;20.50;18.95;14.20;0.75
78314;SPS30;68596;52.080;4.662;2023-09-19T10:11:15;6.02;5.40;4.26;2.69;21.66;21.59;21.31;19.79;15.00;0.74
78314;SPS30;68596;52.080;4.662;2023-09-19T10:14:00;5.66;5.06;3.97;2.46;19.82;19.76;19.49;18.03;13.55;0.76
78314;SPS30;68596;52.080;4.662;2023-09-19T10:16:50;5.97;5.34;4.21;2.64;21.27;21.20;20.92;19.41;14.67;0.77
78314;SPS30;68596;52.080;4.662;2023-09-19T10:22:34;4.57;4.11;3.27;2.10;16.94;16.89;16.68;15.56;11.90;0.73
78314;SPS30;68596;52.080;4.662;2023-09-19T10:25:20;4.99;4.52;3.65;2.43;19.53;19.48;19.27;18.10;14.04;0.72
78314;SPS30;68596;52.080;4.662;2023-09-19T10:28:06;4.52;4.07;3.27;2.13;17.14;17.09;16.89;15.81;12.16;0.73
78314;SPS30;68596;52.080;4.662;2023-09-19T10:30:54;4.88;4.39;3.50;2.25;18.15;18.10;17.88;16.68;12.77;0.73
78314;SPS30;68596;52.080;4.662;2023-09-19T10:33:42;4.83;4.36;3.50;2.29;18.41;18.36;18.15;16.99;13.09;0.72
78314;SPS30;68596;52.080;4.662;2023-09-19T10:36:27;4.71;4.22;3.34;2.10;16.95;16.90;16.68;15.49;11.74;0.75
78314;SPS30;68596;52.080;4.662;2023-09-19T10:39:20;5.47;4.87;3.77;2.26;18.24;18.18;17.91;16.44;12.16;0.78
78314;SPS30;68596;52.080;4.662;2023-09-19T10:42:04;5.14;4.58;3.55;2.14;17.24;17.18;16.93;15.56;11.53;0.75
78314;SPS30;68596;52.080;4.662;2023-09-19T10:44:50;5.15;4.57;3.52;2.09;16.86;16.80;16.54;15.15;11.14;0.75
78314;SPS30;68596;52.080;4.662;2023-09-19T10:47:39;4.70;4.22;3.33;2.10;16.93;16.88;16.66;15.47;11.73;0.72
78314;SPS30;68596;52.080;4.662;2023-09-19T10:50:24;4.23;3.81;3.03;1.94;15.64;15.59;15.40;14.35;10.96;0.71